sensor_id;sensor_type;location;lat;lon;timestamp;temperature;humidity
40638;DHT22;26336;44.696;10.622;2023-08-06T00:00:28;20.90;99.90
40638;DHT22;26336;44.696;10.622;2023-08-06T00:03:32;20.90;99.90
40638;DHT22;26336;44.696;10.622;2023-08-06T00:06:36;20.90;99.90
40638;DHT22;26336;44.696;10.622;2023-08-06T00:09:40;20.90;99.90
40638;DHT22;26336;44.696;10.622;2023-08-06T00:12:44;20.90;99.90
40638;DHT22;26336;44.696;10.622;2023-08-06T00:15:48;20.70;99.90
40638;DHT22;26336;44.696;10.622;2023-08-06T00:18:52;20.70;99.90
40638;DHT22;26336;44.696;10.622;2023-08-06T00:21:56;20.70;99.90
40638;DHT22;26336;44.696;10.622;2023-08-06T00:25:00;20.60;99.90
40638;DHT22;26336;44.696;10.622;2023-08-06T00:28:05;20.60;99.90
40638;DHT22;26336;44.696;10.622;2023-08-06T00:31:08;20.70;99.90
40638;DHT22;26336;44.696;10.622;2023-08-06T00:34:12;20.60;99.90
40638;DHT22;26336;44.696;10.622;2023-08-06T00:37:17;20.50;99.90
40638;DHT22;26336;44.696;10.622;2023-08-06T00:40:21;20.50;99.90
40638;DHT22;26336;44.696;10.622;2023-08-06T00:43:27;20.50;99.90
40638;DHT22;26336;44.696;10.622;2023-08-06T00:46:32;20.50;99.90
40638;DHT22;26336;44.696;10.622;2023-08-06T00:49:37;20.50;99.90
40638;DHT22;26336;44.696;10.622;2023-08-06T00:52:41;20.50;99.90
40638;DHT22;26336;44.696;10.622;2023-08-06T00:55:46;20.50;99.90
40638;DHT22;26336;44.696;10.622;2023-08-06T00:58:51;20.50;99.90
40638;DHT22;26336;44.696;10.622;2023-08-06T01:01:55;20.50;99.90
40638;DHT22;26336;44.696;10.622;2023-08-06T01:04:59;20.40;99.90
40638;DHT22;26336;44.696;10.622;2023-08-06T01:08:12;20.40;99.90
40638;DHT22;26336;44.696;10.622;2023-08-06T01:11:33;20.30;99.90
40638;DHT22;26336;44.696;10.622;2023-08-06T01:14:53;20.30;99.90
40638;DHT22;26336;44.696;10.622;2023-08-06T01:18:01;20.30;99.90
40638;DHT22;26336;44.696;10.622;2023-08-06T01:21:06;20.20;99.90
40638;DHT22;26336;44.696;10.622;2023-08-06T01:24:10;20.20;99.90
40638;DHT22;26336;44.696;10.622;2023-08-06T01:27:21;20.20;99.90
40638;DHT22;26336;44.696;10.622;2023-08-06T01:30:30;20.20;99.90
40638;DHT22;26336;44.696;10.622;2023-08-06T01:33:43;20.20;99.90
40638;DHT22;26336;44.696;10.622;2023-08-06T01:36:48;20.00;99.90
40638;DHT22;26336;44.696;10.622;2023-08-06T01:39:52;20.00;99.90
40638;DHT22;26336;44.696;10.622;2023-08-06T01:42:56;20.10;99.90
40638;DHT22;26336;44.696;10.622;2023-08-06T01:46:00;20.20;99.90
40638;DHT22;26336;44.696;10.622;2023-08-06T01:49:04;20.20;99.90
40638;DHT22;26336;44.696;10.622;2023-08-06T01:52:08;20.10;99.90
40638;DHT22;26336;44.696;10.622;2023-08-06T01:55:12;20.10;99.90
40638;DHT22;26336;44.696;10.622;2023-08-06T01:58:16;20.10;99.90
40638;DHT22;26336;44.696;10.622;2023-08-06T02:01:20;20.10;99.90
40638;DHT22;26336;44.696;10.622;2023-08-06T02:04:24;20.10;99.90
40638;DHT22;26336;44.696;10.622;2023-08-06T02:07:28;20.10;99.90
40638;DHT22;26336;44.696;10.622;2023-08-06T02:10:32;20.10;99.90
40638;DHT22;26336;44.696;10.622;2023-08-06T02:13:36;20.20;99.90
40638;DHT22;26336;44.696;10.622;2023-08-06T02:16:40;20.10;99.90
40638;DHT22;26336;44.696;10.622;2023-08-06T02:19:44;20.20;99.90
40638;DHT22;26336;44.696;10.622;2023-08-06T02:22:48;20.10;99.90
40638;DHT22;26336;44.696;10.622;2023-08-06T02:26:01;20.20;99.90
40638;DHT22;26336;44.696;10.622;2023-08-06T02:29:06;20.10;99.90
40638;DHT22;26336;44.696;10.622;2023-08-06T02:32:10;20.10;99.90
40638;DHT22;26336;44.696;10.622;2023-08-06T02:35:13;20.10;99.90
40638;DHT22;26336;44.696;10.622;2023-08-06T02:38:17;20.20;99.90
40638;DHT22;26336;44.696;10.622;2023-08-06T02:41:21;20.10;99.90
40638;DHT22;26336;44.696;10.622;2023-08-06T02:44:28;20.10;99.90
40638;DHT22;26336;44.696;10.622;2023-08-06T02:47:32;20.10;99.90
40638;DHT22;26336;44.696;10.622;2023-08-06T02:50:40;20.10;99.90
40638;DHT22;26336;44.696;10.622;2023-08-06T02:53:45;20.10;99.90
40638;DHT22;26336;44.696;10.622;2023-08-06T02:56:52;20.00;99.90
40638;DHT22;26336;44.696;10.622;2023-08-06T03:00:04;19.90;99.90
40638;DHT22;26336;44.696;10.622;2023-08-06T03:03:09;20.00;99.90
40638;DHT22;26336;44.696;10.622;2023-08-06T03:06:22;20.00;99.90
40638;DHT22;26336;44.696;10.622;2023-08-06T03:09:30;20.00;99.90
40638;DHT22;26336;44.696;10.622;2023-08-06T03:12:35;20.00;99.90
40638;DHT22;26336;44.696;10.622;2023-08-06T03:15:41;20.10;99.90
40638;DHT22;26336;44.696;10.622;2023-08-06T03:18:48;20.10;99.90
40638;DHT22;26336;44.696;10.622;2023-08-06T03:21:52;20.10;99.90
40638;DHT22;26336;44.696;10.622;2023-08-06T03:24:57;20.10;99.90
40638;DHT22;26336;44.696;10.622;2023-08-06T03:28:03;20.00;99.90
40638;DHT22;26336;44.696;10.622;2023-08-06T03:31:07;20.10;99.90
40638;DHT22;26336;44.696;10.622;2023-08-06T03:34:17;20.10;99.90
40638;DHT22;26336;44.696;10.622;2023-08-06T03:37:21;20.10;99.90
40638;DHT22;26336;44.696;10.622;2023-08-06T03:40:27;20.00;99.90
40638;DHT22;26336;44.696;10.622;2023-08-06T03:43:33;20.10;99.90
40638;DHT22;26336;44.696;10.622;2023-08-06T03:46:38;20.00;99.90
40638;DHT22;26336;44.696;10.622;2023-08-06T03:49:45;20.00;99.90
40638;DHT22;26336;44.696;10.622;2023-08-06T03:52:51;20.10;99.90
40638;DHT22;26336;44.696;10.622;2023-08-06T03:55:55;20.00;99.90
40638;DHT22;26336;44.696;10.622;2023-08-06T03:59:03;20.10;99.90
40638;DHT22;26336;44.696;10.622;2023-08-06T04:02:07;20.10;99.90
40638;DHT22;26336;44.696;10.622;2023-08-06T04:05:11;20.10;99.90
40638;DHT22;26336;44.696;10.622;2023-08-06T04:08:15;20.10;99.90
40638;DHT22;26336;44.696;10.622;2023-08-06T04:11:19;20.10;99.90
40638;DHT22;26336;44.696;10.622;2023-08-06T04:14:24;20.10;99.90
40638;DHT22;26336;44.696;10.622;2023-08-06T04:17:28;20.10;99.90
40638;DHT22;26336;44.696;10.622;2023-08-06T04:20:32;20.10;99.90
40638;DHT22;26336;44.696;10.622;2023-08-06T04:23:36;20.10;99.90
40638;DHT22;26336;44.696;10.622;2023-08-06T04:26:43;20.10;99.90
40638;DHT22;26336;44.696;10.622;2023-08-06T04:29:49;20.10;99.90
40638;DHT22;26336;44.696;10.622;2023-08-06T04:32:53;20.20;99.90
40638;DHT22;26336;44.696;10.622;2023-08-06T04:35:59;20.20;99.90
40638;DHT22;26336;44.696;10.622;2023-08-06T04:39:05;20.10;99.90
40638;DHT22;26336;44.696;10.622;2023-08-06T04:42:08;20.10;99.90
40638;DHT22;26336;44.696;10.622;2023-08-06T04:45:13;20.10;99.90
40638;DHT22;26336;44.696;10.622;2023-08-06T04:48:17;20.10;99.90
40638;DHT22;26336;44.696;10.622;2023-08-06T04:51:21;20.10;99.90
40638;DHT22;26336;44.696;10.622;2023-08-06T04:54:25;20.10;99.90
40638;DHT22;26336;44.696;10.622;2023-08-06T04:57:29;20.10;99.90
40638;DHT22;26336;44.696;10.622;2023-08-06T05:00:33;20.10;99.90
40638;DHT22;26336;44.696;10.622;2023-08-06T05:03:37;20.00;99.90
40638;DHT22;26336;44.696;10.622;2023-08-06T05:06:41;20.00;99.90
40638;DHT22;26336;44.696;10.622;2023-08-06T05:09:45;20.00;99.90
40638;DHT22;26336;44.696;10.622;2023-08-06T05:12:49;20.00;99.90
40638;DHT22;26336;44.696;10.622;2023-08-06T05:15:54;19.90;99.90
40638;DHT22;26336;44.696;10.622;2023-08-06T05:18:57;19.90;99.90
40638;DHT22;26336;44.696;10.622;2023-08-06T05:22:01;19.90;99.90
40638;DHT22;26336;44.696;10.622;2023-08-06T05:25:06;19.90;99.90
40638;DHT22;26336;44.696;10.622;2023-08-06T05:28:10;19.90;99.90
40638;DHT22;26336;44.696;10.622;2023-08-06T05:31:14;20.00;99.90
40638;DHT22;26336;44.696;10.622;2023-08-06T05:34:18;20.00;99.90
40638;DHT22;26336;44.696;10.622;2023-08-06T05:37:22;20.00;99.90
40638;DHT22;26336;44.696;10.622;2023-08-06T05:40:26;20.10;99.90
40638;DHT22;26336;44.696;10.622;2023-08-06T05:43:29;20.10;99.90
40638;DHT22;26336;44.696;10.622;2023-08-06T05:46:34;20.20;99.80
40638;DHT22;26336;44.696;10.622;2023-08-06T05:49:38;20.20;99.70
40638;DHT22;26336;44.696;10.622;2023-08-06T05:52:42;20.20;99.70
40638;DHT22;26336;44.696;10.622;2023-08-06T05:55:47;20.30;99.50
40638;DHT22;26336;44.696;10.622;2023-08-06T05:58:51;20.30;99.40
40638;DHT22;26336;44.696;10.622;2023-08-06T06:01:57;20.40;99.90
40638;DHT22;26336;44.696;10.622;2023-08-06T06:05:01;20.50;99.90
40638;DHT22;26336;44.696;10.622;2023-08-06T06:08:05;20.50;99.90
40638;DHT22;26336;44.696;10.622;2023-08-06T06:11:09;20.50;99.80
40638;DHT22;26336;44.696;10.622;2023-08-06T06:14:13;20.60;99.80
40638;DHT22;26336;44.696;10.622;2023-08-06T06:17:17;20.60;99.90
40638;DHT22;26336;44.696;10.622;2023-08-06T06:20:21;20.60;99.90
40638;DHT22;26336;44.696;10.622;2023-08-06T06:23:25;20.70;99.90
40638;DHT22;26336;44.696;10.622;2023-08-06T06:26:29;20.70;99.90
40638;DHT22;26336;44.696;10.622;2023-08-06T06:29:33;20.70;99.90
40638;DHT22;26336;44.696;10.622;2023-08-06T06:32:37;20.70;99.90
40638;DHT22;26336;44.696;10.622;2023-08-06T06:35:41;20.70;99.90
40638;DHT22;26336;44.696;10.622;2023-08-06T06:38:45;20.80;99.90
40638;DHT22;26336;44.696;10.622;2023-08-06T06:41:50;20.80;99.90
40638;DHT22;26336;44.696;10.622;2023-08-06T06:45:03;20.80;99.90
40638;DHT22;26336;44.696;10.622;2023-08-06T06:48:07;20.80;99.90
40638;DHT22;26336;44.696;10.622;2023-08-06T06:51:11;20.90;99.90
40638;DHT22;26336;44.696;10.622;2023-08-06T06:54:15;20.90;99.90
40638;DHT22;26336;44.696;10.622;2023-08-06T06:57:19;20.90;99.90
40638;DHT22;26336;44.696;10.622;2023-08-06T07:00:23;20.90;99.90
40638;DHT22;26336;44.696;10.622;2023-08-06T07:03:27;20.90;99.90
40638;DHT22;26336;44.696;10.622;2023-08-06T07:06:31;21.00;99.90
40638;DHT22;26336;44.696;10.622;2023-08-06T07:09:36;21.10;99.90
40638;DHT22;26336;44.696;10.622;2023-08-06T07:12:39;21.10;99.90
40638;DHT22;26336;44.696;10.622;2023-08-06T07:15:44;21.20;99.90
40638;DHT22;26336;44.696;10.622;2023-08-06T07:18:48;21.20;99.90
40638;DHT22;26336;44.696;10.622;2023-08-06T07:21:51;21.20;99.90
40638;DHT22;26336;44.696;10.622;2023-08-06T07:24:55;21.30;99.90
40638;DHT22;26336;44.696;10.622;2023-08-06T07:28:06;21.30;99.90
40638;DHT22;26336;44.696;10.622;2023-08-06T07:31:10;21.40;99.90
40638;DHT22;26336;44.696;10.622;2023-08-06T07:34:14;21.30;99.90
40638;DHT22;26336;44.696;10.622;2023-08-06T07:37:19;21.40;99.90
40638;DHT22;26336;44.696;10.622;2023-08-06T07:40:23;21.50;99.90
40638;DHT22;26336;44.696;10.622;2023-08-06T07:43:27;21.50;99.90
40638;DHT22;26336;44.696;10.622;2023-08-06T07:46:30;21.60;99.90
40638;DHT22;26336;44.696;10.622;2023-08-06T07:49:35;21.60;99.90
40638;DHT22;26336;44.696;10.622;2023-08-06T07:52:39;21.70;99.90
40638;DHT22;26336;44.696;10.622;2023-08-06T07:55:43;21.80;99.90
40638;DHT22;26336;44.696;10.622;2023-08-06T07:58:47;21.80;99.90
40638;DHT22;26336;44.696;10.622;2023-08-06T08:01:51;21.90;99.90
40638;DHT22;26336;44.696;10.622;2023-08-06T08:04:55;22.00;99.90
40638;DHT22;26336;44.696;10.622;2023-08-06T08:07:59;22.10;99.90
40638;DHT22;26336;44.696;10.622;2023-08-06T08:11:03;22.10;99.70
40638;DHT22;26336;44.696;10.622;2023-08-06T08:14:07;22.20;99.50
40638;DHT22;26336;44.696;10.622;2023-08-06T08:17:14;22.20;99.40
40638;DHT22;26336;44.696;10.622;2023-08-06T08:20:22;22.20;99.30
40638;DHT22;26336;44.696;10.622;2023-08-06T08:23:27;22.30;99.10
40638;DHT22;26336;44.696;10.622;2023-08-06T08:26:30;22.30;99.10
40638;DHT22;26336;44.696;10.622;2023-08-06T08:29:34;22.40;99.00
40638;DHT22;26336;44.696;10.622;2023-08-06T08:32:38;22.40;98.80
40638;DHT22;26336;44.696;10.622;2023-08-06T08:35:46;22.50;98.80
40638;DHT22;26336;44.696;10.622;2023-08-06T08:38:50;22.50;98.80
40638;DHT22;26336;44.696;10.622;2023-08-06T08:41:57;22.60;98.70
40638;DHT22;26336;44.696;10.622;2023-08-06T08:45:03;22.70;98.80
40638;DHT22;26336;44.696;10.622;2023-08-06T08:48:10;22.70;98.80
40638;DHT22;26336;44.696;10.622;2023-08-06T08:51:17;22.90;98.90
40638;DHT22;26336;44.696;10.622;2023-08-06T08:54:23;22.90;98.80
40638;DHT22;26336;44.696;10.622;2023-08-06T08:57:33;23.00;98.50
40638;DHT22;26336;44.696;10.622;2023-08-06T09:00:39;23.10;99.40
40638;DHT22;26336;44.696;10.622;2023-08-06T09:03:45;23.20;98.50
40638;DHT22;26336;44.696;10.622;2023-08-06T09:06:54;23.30;98.70
40638;DHT22;26336;44.696;10.622;2023-08-06T09:10:02;23.40;98.80
40638;DHT22;26336;44.696;10.622;2023-08-06T09:13:09;23.60;99.00
40638;DHT22;26336;44.696;10.622;2023-08-06T09:16:12;23.70;98.40
40638;DHT22;26336;44.696;10.622;2023-08-06T09:19:16;23.70;97.60
40638;DHT22;26336;44.696;10.622;2023-08-06T09:22:21;23.80;97.50
40638;DHT22;26336;44.696;10.622;2023-08-06T09:25:25;23.90;97.70
40638;DHT22;26336;44.696;10.622;2023-08-06T09:28:39;23.90;97.20
40638;DHT22;26336;44.696;10.622;2023-08-06T09:31:50;24.00;96.70
40638;DHT22;26336;44.696;10.622;2023-08-06T09:34:57;24.10;96.70
40638;DHT22;26336;44.696;10.622;2023-08-06T09:38:06;24.10;96.90
40638;DHT22;26336;44.696;10.622;2023-08-06T09:41:27;24.20;96.00
40638;DHT22;26336;44.696;10.622;2023-08-06T09:44:34;24.20;95.60
40638;DHT22;26336;44.696;10.622;2023-08-06T09:47:38;24.30;95.50
40638;DHT22;26336;44.696;10.622;2023-08-06T09:50:42;24.40;95.50
40638;DHT22;26336;44.696;10.622;2023-08-06T09:53:47;24.50;96.50
40638;DHT22;26336;44.696;10.622;2023-08-06T09:56:55;24.60;95.50
40638;DHT22;26336;44.696;10.622;2023-08-06T10:00:00;24.70;95.10
40638;DHT22;26336;44.696;10.622;2023-08-06T10:03:06;24.80;94.60
40638;DHT22;26336;44.696;10.622;2023-08-06T10:06:11;24.90;93.80
40638;DHT22;26336;44.696;10.622;2023-08-06T10:09:16;24.90;94.00
40638;DHT22;26336;44.696;10.622;2023-08-06T10:12:21;25.00;90.20
40638;DHT22;26336;44.696;10.622;2023-08-06T10:15:27;25.00;90.50
40638;DHT22;26336;44.696;10.622;2023-08-06T10:18:40;25.10;85.50
40638;DHT22;26336;44.696;10.622;2023-08-06T10:22:13;25.20;89.10
40638;DHT22;26336;44.696;10.622;2023-08-06T10:25:18;25.30;82.70
40638;DHT22;26336;44.696;10.622;2023-08-06T10:28:34;25.40;81.60
40638;DHT22;26336;44.696;10.622;2023-08-06T10:31:58;25.50;79.30
40638;DHT22;26336;44.696;10.622;2023-08-06T10:35:04;25.70;81.30
40638;DHT22;26336;44.696;10.622;2023-08-06T10:38:16;25.80;78.60
40638;DHT22;26336;44.696;10.622;2023-08-06T10:41:30;25.90;77.30
40638;DHT22;26336;44.696;10.622;2023-08-06T10:44:34;25.90;75.80
40638;DHT22;26336;44.696;10.622;2023-08-06T10:47:46;26.00;76.10
40638;DHT22;26336;44.696;10.622;2023-08-06T10:50:54;26.00;71.10
40638;DHT22;26336;44.696;10.622;2023-08-06T10:54:02;26.00;74.10
40638;DHT22;26336;44.696;10.622;2023-08-06T10:57:09;26.10;71.30
40638;DHT22;26336;44.696;10.622;2023-08-06T11:00:14;26.20;71.10
40638;DHT22;26336;44.696;10.622;2023-08-06T11:03:22;26.20;74.10
40638;DHT22;26336;44.696;10.622;2023-08-06T11:06:27;26.30;71.70
40638;DHT22;26336;44.696;10.622;2023-08-06T11:09:34;26.30;70.80
40638;DHT22;26336;44.696;10.622;2023-08-06T11:12:38;26.50;70.80
40638;DHT22;26336;44.696;10.622;2023-08-06T11:15:42;26.60;68.20
40638;DHT22;26336;44.696;10.622;2023-08-06T11:18:47;26.70;68.80
40638;DHT22;26336;44.696;10.622;2023-08-06T11:21:51;26.70;70.30
40638;DHT22;26336;44.696;10.622;2023-08-06T11:24:56;26.70;70.10
40638;DHT22;26336;44.696;10.622;2023-08-06T11:28:01;26.80;68.40
40638;DHT22;26336;44.696;10.622;2023-08-06T11:31:05;26.80;66.30
40638;DHT22;26336;44.696;10.622;2023-08-06T11:34:09;26.80;67.00
40638;DHT22;26336;44.696;10.622;2023-08-06T11:37:13;26.90;67.40
40638;DHT22;26336;44.696;10.622;2023-08-06T11:40:18;26.90;63.80
40638;DHT22;26336;44.696;10.622;2023-08-06T11:43:22;27.00;63.80
40638;DHT22;26336;44.696;10.622;2023-08-06T11:46:28;27.00;64.60
40638;DHT22;26336;44.696;10.622;2023-08-06T11:49:48;27.10;62.70
40638;DHT22;26336;44.696;10.622;2023-08-06T11:53:00;27.10;64.10
40638;DHT22;26336;44.696;10.622;2023-08-06T11:56:04;27.20;63.80
40638;DHT22;26336;44.696;10.622;2023-08-06T11:59:09;27.20;62.70
40638;DHT22;26336;44.696;10.622;2023-08-06T12:02:17;27.20;62.20
40638;DHT22;26336;44.696;10.622;2023-08-06T12:05:33;27.30;63.30
40638;DHT22;26336;44.696;10.622;2023-08-06T12:08:49;27.30;62.90
40638;DHT22;26336;44.696;10.622;2023-08-06T12:11:54;27.30;64.20
40638;DHT22;26336;44.696;10.622;2023-08-06T12:14:58;27.40;62.70
40638;DHT22;26336;44.696;10.622;2023-08-06T12:18:05;27.40;63.60
40638;DHT22;26336;44.696;10.622;2023-08-06T12:21:13;27.40;64.50
40638;DHT22;26336;44.696;10.622;2023-08-06T12:24:20;27.40;65.40
40638;DHT22;26336;44.696;10.622;2023-08-06T12:27:24;27.30;65.50
40638;DHT22;26336;44.696;10.622;2023-08-06T12:30:28;27.40;65.70
40638;DHT22;26336;44.696;10.622;2023-08-06T12:33:36;27.40;64.70
40638;DHT22;26336;44.696;10.622;2023-08-06T12:36:53;27.50;64.20
40638;DHT22;26336;44.696;10.622;2023-08-06T12:39:58;27.50;65.10
40638;DHT22;26336;44.696;10.622;2023-08-06T12:43:09;27.50;65.20
40638;DHT22;26336;44.696;10.622;2023-08-06T12:46:16;27.50;63.40
40638;DHT22;26336;44.696;10.622;2023-08-06T12:49:22;27.60;63.20
40638;DHT22;26336;44.696;10.622;2023-08-06T12:52:27;27.60;64.40
40638;DHT22;26336;44.696;10.622;2023-08-06T12:55:31;27.60;64.70
40638;DHT22;26336;44.696;10.622;2023-08-06T12:58:35;27.60;63.10
40638;DHT22;26336;44.696;10.622;2023-08-06T13:01:39;27.70;64.40
40638;DHT22;26336;44.696;10.622;2023-08-06T13:04:43;27.70;63.20
40638;DHT22;26336;44.696;10.622;2023-08-06T13:07:47;27.70;62.20
40638;DHT22;26336;44.696;10.622;2023-08-06T13:10:51;27.80;63.70
40638;DHT22;26336;44.696;10.622;2023-08-06T13:14:12;27.80;63.20
40638;DHT22;26336;44.696;10.622;2023-08-06T13:17:48;27.80;63.40
40638;DHT22;26336;44.696;10.622;2023-08-06T13:20:58;27.80;63.80
40638;DHT22;26336;44.696;10.622;2023-08-06T13:24:02;27.80;62.90
40638;DHT22;26336;44.696;10.622;2023-08-06T13:27:06;27.80;63.40
40638;DHT22;26336;44.696;10.622;2023-08-06T13:30:11;27.80;62.60
40638;DHT22;26336;44.696;10.622;2023-08-06T13:33:15;27.90;62.70
40638;DHT22;26336;44.696;10.622;2023-08-06T13:36:18;28.00;63.10
40638;DHT22;26336;44.696;10.622;2023-08-06T13:39:22;28.00;63.90
40638;DHT22;26336;44.696;10.622;2023-08-06T13:42:28;28.00;64.60
40638;DHT22;26336;44.696;10.622;2023-08-06T13:45:32;28.00;63.10
40638;DHT22;26336;44.696;10.622;2023-08-06T13:48:38;28.00;65.50
40638;DHT22;26336;44.696;10.622;2023-08-06T13:51:42;27.90;65.00
40638;DHT22;26336;44.696;10.622;2023-08-06T13:54:46;27.80;63.30
40638;DHT22;26336;44.696;10.622;2023-08-06T13:57:53;28.00;62.30
40638;DHT22;26336;44.696;10.622;2023-08-06T14:00:57;28.00;62.80
40638;DHT22;26336;44.696;10.622;2023-08-06T14:04:01;28.10;60.30
40638;DHT22;26336;44.696;10.622;2023-08-06T14:07:05;28.10;59.10
40638;DHT22;26336;44.696;10.622;2023-08-06T14:10:11;28.20;60.40
40638;DHT22;26336;44.696;10.622;2023-08-06T14:13:15;28.20;59.70
40638;DHT22;26336;44.696;10.622;2023-08-06T14:16:20;28.20;58.20
40638;DHT22;26336;44.696;10.622;2023-08-06T14:19:27;28.30;56.70
40638;DHT22;26336;44.696;10.622;2023-08-06T14:22:31;28.30;57.00
40638;DHT22;26336;44.696;10.622;2023-08-06T14:25:35;28.40;54.70
40638;DHT22;26336;44.696;10.622;2023-08-06T14:28:42;28.40;54.30
40638;DHT22;26336;44.696;10.622;2023-08-06T14:31:47;28.40;53.50
40638;DHT22;26336;44.696;10.622;2023-08-06T14:34:53;28.40;52.70
40638;DHT22;26336;44.696;10.622;2023-08-06T14:37:58;28.50;54.40
40638;DHT22;26336;44.696;10.622;2023-08-06T14:41:02;28.50;53.80
40638;DHT22;26336;44.696;10.622;2023-08-06T14:44:12;28.60;53.00
40638;DHT22;26336;44.696;10.622;2023-08-06T14:47:16;28.60;52.10
40638;DHT22;26336;44.696;10.622;2023-08-06T14:50:20;28.60;52.00
40638;DHT22;26336;44.696;10.622;2023-08-06T14:53:24;28.60;52.10
40638;DHT22;26336;44.696;10.622;2023-08-06T14:56:28;28.60;53.40
40638;DHT22;26336;44.696;10.622;2023-08-06T15:03:47;28.60;52.80
40638;DHT22;26336;44.696;10.622;2023-08-06T15:06:51;28.60;50.90
40638;DHT22;26336;44.696;10.622;2023-08-06T15:09:55;28.60;49.80
40638;DHT22;26336;44.696;10.622;2023-08-06T15:12:59;28.70;50.00
40638;DHT22;26336;44.696;10.622;2023-08-06T15:16:03;28.60;50.50
40638;DHT22;26336;44.696;10.622;2023-08-06T15:19:10;28.60;50.10
40638;DHT22;26336;44.696;10.622;2023-08-06T15:22:14;28.60;50.70
40638;DHT22;26336;44.696;10.622;2023-08-06T15:25:18;28.60;50.00
40638;DHT22;26336;44.696;10.622;2023-08-06T15:28:25;28.70;50.00
40638;DHT22;26336;44.696;10.622;2023-08-06T15:31:38;28.60;49.50
40638;DHT22;26336;44.696;10.622;2023-08-06T15:34:42;28.60;50.10
40638;DHT22;26336;44.696;10.622;2023-08-06T15:37:46;28.60;49.90
40638;DHT22;26336;44.696;10.622;2023-08-06T15:40:50;28.70;50.60
40638;DHT22;26336;44.696;10.622;2023-08-06T15:44:06;28.70;51.00
40638;DHT22;26336;44.696;10.622;2023-08-06T15:47:10;28.70;52.00
40638;DHT22;26336;44.696;10.622;2023-08-06T15:50:16;28.70;51.20
40638;DHT22;26336;44.696;10.622;2023-08-06T15:53:20;28.70;50.80
40638;DHT22;26336;44.696;10.622;2023-08-06T15:56:23;28.70;51.40
40638;DHT22;26336;44.696;10.622;2023-08-06T15:59:32;28.70;49.90
40638;DHT22;26336;44.696;10.622;2023-08-06T16:02:41;28.70;50.90
40638;DHT22;26336;44.696;10.622;2023-08-06T16:05:45;28.70;51.20
40638;DHT22;26336;44.696;10.622;2023-08-06T16:08:51;28.70;51.70
40638;DHT22;26336;44.696;10.622;2023-08-06T16:11:55;28.70;51.70
40638;DHT22;26336;44.696;10.622;2023-08-06T16:14:59;28.70;51.80
40638;DHT22;26336;44.696;10.622;2023-08-06T16:18:03;28.70;51.10
40638;DHT22;26336;44.696;10.622;2023-08-06T16:21:07;28.70;51.90
40638;DHT22;26336;44.696;10.622;2023-08-06T16:24:11;28.70;52.80
40638;DHT22;26336;44.696;10.622;2023-08-06T16:27:17;28.60;52.50
40638;DHT22;26336;44.696;10.622;2023-08-06T16:30:21;28.60;52.60
40638;DHT22;26336;44.696;10.622;2023-08-06T16:33:38;28.70;50.80
40638;DHT22;26336;44.696;10.622;2023-08-06T16:36:42;28.70;50.50
40638;DHT22;26336;44.696;10.622;2023-08-06T16:39:46;28.70;51.10
40638;DHT22;26336;44.696;10.622;2023-08-06T16:42:50;28.70;52.00
40638;DHT22;26336;44.696;10.622;2023-08-06T16:45:54;28.60;52.80
40638;DHT22;26336;44.696;10.622;2023-08-06T16:48:58;28.60;52.60
40638;DHT22;26336;44.696;10.622;2023-08-06T16:52:05;28.60;53.00
40638;DHT22;26336;44.696;10.622;2023-08-06T16:55:10;28.60;53.50
40638;DHT22;26336;44.696;10.622;2023-08-06T16:58:14;28.50;54.40
40638;DHT22;26336;44.696;10.622;2023-08-06T17:01:21;28.40;53.90
40638;DHT22;26336;44.696;10.622;2023-08-06T17:04:26;28.40;53.90
40638;DHT22;26336;44.696;10.622;2023-08-06T17:07:30;28.30;53.60
40638;DHT22;26336;44.696;10.622;2023-08-06T17:10:38;28.30;53.60
40638;DHT22;26336;44.696;10.622;2023-08-06T17:13:44;28.20;54.10
40638;DHT22;26336;44.696;10.622;2023-08-06T17:16:48;28.10;53.80
40638;DHT22;26336;44.696;10.622;2023-08-06T17:19:52;28.10;54.00
40638;DHT22;26336;44.696;10.622;2023-08-06T17:22:57;28.00;54.20
40638;DHT22;26336;44.696;10.622;2023-08-06T17:26:03;28.00;54.80
40638;DHT22;26336;44.696;10.622;2023-08-06T17:29:07;28.00;55.50
40638;DHT22;26336;44.696;10.622;2023-08-06T17:32:11;27.90;55.20
40638;DHT22;26336;44.696;10.622;2023-08-06T17:35:16;27.80;55.00
40638;DHT22;26336;44.696;10.622;2023-08-06T17:38:20;27.80;55.20
40638;DHT22;26336;44.696;10.622;2023-08-06T17:41:25;27.70;55.10
40638;DHT22;26336;44.696;10.622;2023-08-06T17:44:33;27.70;55.90
40638;DHT22;26336;44.696;10.622;2023-08-06T17:47:37;27.60;56.50
40638;DHT22;26336;44.696;10.622;2023-08-06T17:50:41;27.60;56.60
40638;DHT22;26336;44.696;10.622;2023-08-06T17:53:45;27.50;56.50
40638;DHT22;26336;44.696;10.622;2023-08-06T17:56:49;27.50;56.80
40638;DHT22;26336;44.696;10.622;2023-08-06T17:59:56;27.40;57.00
40638;DHT22;26336;44.696;10.622;2023-08-06T18:03:00;27.40;59.40
40638;DHT22;26336;44.696;10.622;2023-08-06T18:06:04;27.30;60.10
40638;DHT22;26336;44.696;10.622;2023-08-06T18:09:08;27.20;60.50
40638;DHT22;26336;44.696;10.622;2023-08-06T18:12:12;27.20;60.00
40638;DHT22;26336;44.696;10.622;2023-08-06T18:15:16;27.10;59.50
40638;DHT22;26336;44.696;10.622;2023-08-06T18:18:20;27.10;59.40
40638;DHT22;26336;44.696;10.622;2023-08-06T18:21:26;27.00;60.60
40638;DHT22;26336;44.696;10.622;2023-08-06T18:24:30;27.00;60.40
40638;DHT22;26336;44.696;10.622;2023-08-06T18:27:35;26.90;61.00
40638;DHT22;26336;44.696;10.622;2023-08-06T18:30:39;26.90;61.40
40638;DHT22;26336;44.696;10.622;2023-08-06T18:33:44;26.80;60.40
40638;DHT22;26336;44.696;10.622;2023-08-06T18:36:48;26.80;60.20
40638;DHT22;26336;44.696;10.622;2023-08-06T18:39:52;26.70;59.40
40638;DHT22;26336;44.696;10.622;2023-08-06T18:42:58;26.70;59.40
40638;DHT22;26336;44.696;10.622;2023-08-06T18:46:02;26.60;59.20
40638;DHT22;26336;44.696;10.622;2023-08-06T18:49:06;26.60;59.10
40638;DHT22;26336;44.696;10.622;2023-08-06T18:52:10;26.60;59.50
40638;DHT22;26336;44.696;10.622;2023-08-06T18:55:17;26.60;59.70
40638;DHT22;26336;44.696;10.622;2023-08-06T18:58:21;26.50;61.60
40638;DHT22;26336;44.696;10.622;2023-08-06T19:01:25;26.50;61.20
40638;DHT22;26336;44.696;10.622;2023-08-06T19:04:29;26.50;60.70
40638;DHT22;26336;44.696;10.622;2023-08-06T19:07:33;26.40;62.90
40638;DHT22;26336;44.696;10.622;2023-08-06T19:10:37;26.40;62.00
40638;DHT22;26336;44.696;10.622;2023-08-06T19:13:41;26.30;61.90
40638;DHT22;26336;44.696;10.622;2023-08-06T19:16:45;26.30;61.60